createdAt,value
2018-11-21T05:00:51.639Z,0.00
2018-11-21T05:01:51.502Z,0.00
2018-11-21T05:03:44.247Z,0.00
2018-11-21T05:04:44.121Z,0.00
2018-11-21T05:06:36.793Z,0.00
2018-11-21T05:07:36.660Z,0.00
2018-11-21T05:09:29.341Z,0.00
2018-11-21T05:10:29.220Z,0.00
2018-11-21T05:12:21.890Z,0.00
2018-11-21T05:13:21.761Z,0.00
2018-11-21T05:15:14.423Z,0.00
2018-11-21T05:16:14.342Z,0.00
2018-11-21T05:18:06.987Z,0.00
2018-11-21T05:19:06.856Z,0.00
2018-11-21T05:20:59.538Z,0.00
2018-11-21T05:21:59.427Z,0.00
2018-11-21T05:23:52.122Z,0.00
2018-11-21T05:24:51.963Z,0.00
2018-11-21T05:26:44.625Z,0.00
2018-11-21T05:27:44.515Z,0.00
2018-11-21T05:29:37.194Z,0.00
2018-11-21T05:30:37.062Z,0.00
2018-11-21T05:32:29.762Z,0.00
2018-11-21T05:33:29.610Z,0.00
2018-11-21T05:35:22.271Z,0.00
2018-11-21T05:36:22.171Z,0.00
2018-11-21T05:38:14.841Z,0.00
2018-11-21T05:39:14.691Z,0.00
2018-11-21T05:41:07.360Z,0.00
2018-11-21T05:42:07.315Z,0.00
2018-11-21T05:43:59.929Z,0.00
2018-11-21T05:44:59.782Z,0.00
2018-11-21T05:46:53.755Z,0.00
2018-11-21T05:47:52.347Z,0.00
2018-11-21T05:49:45.055Z,0.00
2018-11-21T05:50:45.044Z,0.00
2018-11-21T05:52:37.857Z,0.00
2018-11-21T05:53:37.445Z,0.00
2018-11-21T05:55:30.141Z,0.00
2018-11-21T05:56:30.011Z,0.00
2018-11-21T05:58:22.674Z,0.00
2018-11-21T05:59:22.559Z,0.00
2018-11-21T06:01:15.232Z,0.00
2018-11-21T06:02:15.122Z,0.00
2018-11-21T06:04:07.760Z,0.00
2018-11-21T06:05:07.645Z,0.00
2018-11-21T06:07:00.331Z,0.00
2018-11-21T06:08:00.420Z,0.00
2018-11-21T06:09:52.873Z,0.00
2018-11-21T06:10:52.740Z,0.00
2018-11-21T06:12:45.411Z,0.00
2018-11-21T06:13:45.287Z,0.00
2018-11-21T06:15:37.969Z,0.00
2018-11-21T06:16:37.839Z,0.00
2018-11-21T06:18:30.500Z,0.00
2018-11-21T06:19:30.377Z,0.00
2018-11-21T06:21:23.061Z,0.00
2018-11-21T06:22:22.927Z,0.00
2018-11-21T06:24:15.589Z,0.00
2018-11-21T06:25:15.477Z,0.00
2018-11-21T06:27:08.153Z,0.00
2018-11-21T06:28:08.026Z,0.00
2018-11-21T06:30:00.681Z,0.00
2018-11-21T06:31:00.567Z,0.00
2018-11-21T06:32:53.239Z,0.00
2018-11-21T06:33:53.118Z,0.00
2018-11-21T06:35:45.780Z,0.00
2018-11-21T06:36:45.653Z,0.00
2018-11-21T06:38:38.325Z,0.00
2018-11-21T06:39:38.209Z,0.00
2018-11-21T06:41:30.875Z,0.00
2018-11-21T06:42:30.749Z,0.00
2018-11-21T06:44:23.410Z,0.00
2018-11-21T06:45:23.288Z,0.00
2018-11-21T06:47:15.970Z,5.63
2018-11-21T06:48:15.837Z,5.63
2018-11-21T06:50:08.498Z,5.63
2018-11-21T06:51:08.380Z,5.63
2018-11-21T06:53:01.061Z,5.63
2018-11-21T06:54:00.918Z,5.63
2018-11-21T06:55:53.614Z,11.25
2018-11-21T06:56:53.467Z,11.25
2018-11-21T06:58:46.133Z,11.25
2018-11-21T06:59:46.013Z,11.25
2018-11-21T07:01:38.689Z,16.88
2018-11-21T07:02:38.564Z,16.88
2018-11-21T07:04:31.219Z,16.88
2018-11-21T07:05:31.102Z,22.50
2018-11-21T07:07:23.777Z,22.50
2018-11-21T07:08:23.651Z,22.50
2018-11-21T07:10:16.303Z,28.13
2018-11-21T07:11:16.193Z,28.13
2018-11-21T07:13:11.266Z,33.75
2018-11-21T07:14:08.735Z,33.75
2018-11-21T07:16:01.399Z,39.38
2018-11-21T07:17:01.283Z,39.38
2018-11-21T07:18:53.958Z,39.38
2018-11-21T07:19:53.830Z,45.00
2018-11-21T07:21:46.510Z,45.00
2018-11-21T07:22:46.375Z,50.63
2018-11-21T07:24:39.035Z,50.63
2018-11-21T07:25:38.919Z,56.25
2018-11-21T07:27:31.591Z,56.25
2018-11-21T07:28:31.464Z,56.25
2018-11-21T07:30:24.124Z,61.88
2018-11-21T07:31:24.002Z,61.88
2018-11-21T07:33:16.685Z,67.50
2018-11-21T07:34:16.549Z,67.50
2018-11-21T07:36:09.210Z,73.13
2018-11-21T07:37:09.093Z,73.13
2018-11-21T07:39:01.778Z,78.75
2018-11-21T07:40:01.644Z,78.75
2018-11-21T07:41:54.295Z,84.38
2018-11-21T07:42:54.184Z,84.38
2018-11-21T07:44:46.857Z,90.00
2018-11-21T07:45:46.723Z,90.00
2018-11-21T07:47:39.413Z,95.63
2018-11-21T07:48:39.287Z,95.63
2018-11-21T07:50:31.943Z,101.25
2018-11-21T07:51:31.834Z,101.25
2018-11-21T07:53:24.509Z,106.88
2018-11-21T07:54:24.370Z,106.88
2018-11-21T07:56:17.026Z,112.50
2018-11-21T07:57:16.917Z,112.50
2018-11-21T07:59:09.588Z,118.13
2018-11-21T08:00:09.456Z,118.13
2018-11-21T08:02:02.126Z,123.75
2018-11-21T08:03:02.009Z,123.75
2018-11-21T08:04:54.683Z,129.38
2018-11-21T08:05:54.548Z,129.38
2018-11-21T08:07:47.231Z,129.38
2018-11-21T08:08:47.099Z,135.00
2018-11-21T08:10:39.765Z,135.00
2018-11-21T08:11:39.638Z,135.00
2018-11-21T08:13:32.312Z,140.63
2018-11-21T08:14:32.188Z,140.63
2018-11-21T08:16:24.856Z,146.25
2018-11-21T08:17:24.739Z,146.25
2018-11-21T08:19:17.412Z,151.88
2018-11-21T08:20:17.279Z,151.88
2018-11-21T08:22:09.947Z,157.50
2018-11-21T08:23:09.827Z,157.50
2018-11-21T08:25:03.146Z,163.13
2018-11-21T08:26:02.376Z,163.13
2018-11-21T08:27:55.028Z,163.13
2018-11-21T08:28:54.912Z,163.13
2018-11-21T08:30:47.591Z,168.75
2018-11-21T08:31:47.460Z,168.75
2018-11-21T08:33:40.121Z,168.75
2018-11-21T08:34:40.005Z,174.38
2018-11-21T08:36:32.687Z,174.38
2018-11-21T08:37:32.547Z,174.38
2018-11-21T08:39:25.218Z,174.38
2018-11-21T08:40:25.099Z,180.00
2018-11-21T08:42:17.774Z,180.00
2018-11-21T08:43:17.645Z,185.63
2018-11-21T08:45:10.325Z,185.63
2018-11-21T08:46:10.190Z,185.63
2018-11-21T08:48:02.869Z,185.63
2018-11-21T08:49:02.740Z,185.63
2018-11-21T08:50:55.412Z,185.63
2018-11-21T08:51:55.277Z,185.63
2018-11-21T08:53:47.941Z,191.25
2018-11-21T08:54:47.821Z,191.25
2018-11-21T08:56:40.514Z,185.63
2018-11-21T08:57:40.381Z,191.25
2018-11-21T08:59:33.043Z,191.25
2018-11-21T09:00:32.927Z,191.25
2018-11-21T09:02:25.622Z,191.25
2018-11-21T09:03:25.495Z,191.25
2018-11-21T09:05:18.259Z,196.88
2018-11-21T09:06:18.123Z,196.88
2018-11-21T09:08:10.788Z,213.75
2018-11-21T09:09:10.672Z,208.13
2018-11-21T09:11:03.428Z,213.75
2018-11-21T09:12:03.221Z,219.38
2018-11-21T09:13:55.959Z,213.75
2018-11-21T09:14:55.846Z,213.75
2018-11-21T09:16:48.522Z,253.13
2018-11-21T09:17:48.394Z,270.00
2018-11-21T09:19:41.064Z,264.38
2018-11-21T09:20:40.954Z,275.63
2018-11-21T09:22:33.622Z,264.38
2018-11-21T09:23:33.495Z,275.63
2018-11-21T09:25:26.234Z,270.00
2018-11-21T09:26:26.124Z,264.38
2018-11-21T09:28:18.802Z,241.88
2018-11-21T09:29:18.678Z,247.50
2018-11-21T09:31:11.406Z,275.63
2018-11-21T09:32:11.224Z,264.38
2018-11-21T09:34:03.885Z,253.13
2018-11-21T09:35:03.768Z,264.38
2018-11-21T09:36:56.448Z,292.50
2018-11-21T09:37:56.313Z,281.25
2018-11-21T09:39:49.000Z,264.38
2018-11-21T09:40:48.885Z,275.63
2018-11-21T09:42:41.567Z,309.38
2018-11-21T09:43:41.438Z,258.75
2018-11-21T09:45:34.100Z,281.25
2018-11-21T09:46:33.987Z,270.00
2018-11-21T09:48:26.667Z,303.75
2018-11-21T09:49:26.538Z,298.13
2018-11-21T09:51:19.192Z,275.63
2018-11-21T09:52:19.085Z,275.63
2018-11-21T09:54:11.762Z,281.25
2018-11-21T09:55:11.638Z,270.00
2018-11-21T09:57:04.311Z,315.00
2018-11-21T09:58:04.179Z,309.38
2018-11-21T09:59:56.841Z,309.38
2018-11-21T10:00:56.734Z,303.75
2018-11-21T10:02:49.413Z,286.88
2018-11-21T10:03:49.286Z,270.00
2018-11-21T10:05:41.950Z,264.38
2018-11-21T10:06:41.839Z,270.00
2018-11-21T10:08:34.512Z,281.25
2018-11-21T10:09:34.394Z,292.50
2018-11-21T10:11:27.049Z,286.88
2018-11-21T10:12:26.935Z,230.63
2018-11-21T10:14:19.638Z,315.00
2018-11-21T10:15:19.514Z,298.13
2018-11-21T10:17:12.188Z,331.88
2018-11-21T10:18:12.069Z,331.88
2018-11-21T10:20:05.249Z,331.88
2018-11-21T10:21:05.117Z,315.00
2018-11-21T10:22:57.800Z,213.75
2018-11-21T10:23:57.672Z,196.88
2018-11-21T10:25:50.330Z,241.88
2018-11-21T10:26:50.223Z,275.63
2018-11-21T10:28:42.902Z,315.00
2018-11-21T10:29:42.762Z,270.00
2018-11-21T10:31:35.426Z,241.88
2018-11-21T10:32:35.305Z,286.88
2018-11-21T10:34:28.005Z,331.88
2018-11-21T10:35:27.876Z,354.38
2018-11-21T10:37:21.039Z,337.50
2018-11-21T10:38:20.923Z,292.50
2018-11-21T10:40:13.604Z,213.75
2018-11-21T10:41:13.477Z,202.50
2018-11-21T10:43:06.138Z,292.50
2018-11-21T10:44:06.020Z,286.88
2018-11-21T10:45:58.703Z,241.88
2018-11-21T10:46:58.568Z,253.13
2018-11-21T10:48:51.262Z,309.38
2018-11-21T10:49:51.125Z,326.25
2018-11-21T10:51:43.785Z,348.75
2018-11-21T10:52:43.670Z,343.13
2018-11-21T10:54:36.349Z,343.13
2018-11-21T10:55:36.219Z,343.13
2018-11-21T10:57:28.888Z,343.13
2018-11-21T10:58:28.773Z,348.75
2018-11-21T11:00:21.460Z,309.38
2018-11-21T11:01:21.324Z,315.00
2018-11-21T11:03:13.987Z,309.38
2018-11-21T11:04:13.879Z,326.25
2018-11-21T11:06:06.549Z,331.88
2018-11-21T11:07:06.429Z,365.63
2018-11-21T11:08:59.089Z,354.38
2018-11-21T11:10:00.142Z,348.75
2018-11-21T11:11:51.658Z,331.88
2018-11-21T11:12:51.523Z,286.88
2018-11-21T11:14:44.186Z,292.50
2018-11-21T11:15:44.073Z,292.50
2018-11-21T11:17:36.822Z,298.13
2018-11-21T11:18:36.650Z,281.25
2018-11-21T11:20:29.418Z,281.25
2018-11-21T11:21:29.276Z,303.75
2018-11-21T11:23:21.941Z,281.25
2018-11-21T11:24:21.838Z,292.50
2018-11-21T11:26:14.974Z,292.50
2018-11-21T11:27:14.843Z,298.13
2018-11-21T11:29:07.535Z,331.88
2018-11-21T11:30:07.427Z,331.88
2018-11-21T11:32:00.123Z,320.63
2018-11-21T11:33:00.097Z,309.38
2018-11-21T11:34:52.688Z,326.25
2018-11-21T11:35:52.584Z,331.88
2018-11-21T11:37:45.329Z,253.13
2018-11-21T11:38:45.163Z,241.88
2018-11-21T11:40:37.861Z,241.88
2018-11-21T11:41:37.738Z,236.25
2018-11-21T11:43:30.507Z,219.38
2018-11-21T11:44:30.347Z,208.13
2018-11-21T11:46:23.007Z,180.00
2018-11-21T11:47:22.889Z,174.38
2018-11-21T11:49:15.570Z,168.75
2018-11-21T11:50:15.447Z,174.38
2018-11-21T11:52:08.115Z,191.25
2018-11-21T11:53:08.047Z,180.00
2018-11-21T11:55:00.683Z,196.88
2018-11-21T11:56:00.591Z,213.75
2018-11-21T11:57:53.297Z,225.00
2018-11-21T11:58:53.132Z,219.38
2018-11-21T12:00:45.815Z,213.75
2018-11-21T12:01:45.683Z,225.00
2018-11-21T12:03:38.342Z,230.63
2018-11-21T12:04:38.237Z,247.50
2018-11-21T12:06:30.908Z,258.75
2018-11-21T12:07:30.784Z,264.38
2018-11-21T12:09:23.443Z,264.38
2018-11-21T12:10:23.328Z,253.13
2018-11-21T12:12:16.012Z,270.00
2018-11-21T12:13:15.883Z,298.13
2018-11-21T12:15:08.585Z,281.25
2018-11-21T12:16:08.446Z,286.88
2018-11-21T12:18:01.190Z,275.63
2018-11-21T12:19:01.044Z,247.50
2018-11-21T12:20:53.707Z,213.75
2018-11-21T12:21:53.594Z,247.50
2018-11-21T12:23:46.269Z,253.13
2018-11-21T12:24:46.155Z,258.75
2018-11-21T12:26:38.819Z,241.88
2018-11-21T12:27:38.702Z,236.25
2018-11-21T12:29:31.351Z,225.00
2018-11-21T12:30:31.245Z,213.75
2018-11-21T12:32:23.917Z,157.50
2018-11-21T12:33:23.792Z,140.63
2018-11-21T12:35:16.452Z,174.38
2018-11-21T12:36:16.338Z,174.38
2018-11-21T12:38:09.019Z,180.00
2018-11-21T12:39:08.892Z,168.75
2018-11-21T12:41:01.558Z,168.75
2018-11-21T12:42:01.451Z,174.38
2018-11-21T12:43:54.121Z,168.75
2018-11-21T12:44:53.994Z,157.50
2018-11-21T12:46:46.648Z,151.88
2018-11-21T12:47:46.537Z,146.25
2018-11-21T12:49:39.219Z,151.88
2018-11-21T12:50:39.090Z,146.25
2018-11-21T12:52:31.750Z,163.13
2018-11-21T12:53:31.636Z,180.00
2018-11-21T12:55:24.336Z,185.63
2018-11-21T12:56:24.182Z,185.63
2018-11-21T12:58:16.850Z,151.88
2018-11-21T12:59:16.732Z,163.13
2018-11-21T13:01:09.411Z,185.63
2018-11-21T13:02:09.279Z,174.38
2018-11-21T13:04:02.008Z,123.75
2018-11-21T13:05:01.979Z,118.13
2018-11-21T13:06:54.543Z,123.75
2018-11-21T13:07:54.418Z,123.75
2018-11-21T13:09:47.084Z,118.13
2018-11-21T13:10:46.967Z,112.50
2018-11-21T13:12:39.946Z,106.88
2018-11-21T13:13:39.698Z,101.25
2018-11-21T13:15:32.403Z,90.00
2018-11-21T13:16:32.258Z,84.38
2018-11-21T13:18:24.924Z,84.38
2018-11-21T13:19:24.810Z,84.38
2018-11-21T13:21:17.485Z,90.00
2018-11-21T13:22:17.361Z,90.00
2018-11-21T13:24:10.020Z,90.00
2018-11-21T13:25:09.908Z,90.00
2018-11-21T13:27:02.582Z,90.00
2018-11-21T13:28:02.454Z,90.00
2018-11-21T13:29:55.137Z,95.63
2018-11-21T13:30:54.997Z,90.00
2018-11-21T13:32:48.357Z,95.63
2018-11-21T13:33:47.577Z,95.63
2018-11-21T13:35:40.277Z,95.63
2018-11-21T13:36:40.125Z,95.63
2018-11-21T13:38:32.833Z,95.63
2018-11-21T13:39:32.667Z,95.63
2018-11-21T13:41:25.324Z,95.63
2018-11-21T13:42:30.338Z,95.63
2018-11-21T13:44:17.891Z,101.25
2018-11-21T13:45:17.756Z,95.63
2018-11-21T13:47:10.421Z,118.13
2018-11-21T13:48:10.301Z,112.50
2018-11-21T13:50:02.985Z,106.88
2018-11-21T13:51:02.849Z,106.88
2018-11-21T13:52:55.512Z,112.50
2018-11-21T13:53:55.395Z,118.13
2018-11-21T13:55:48.069Z,106.88
2018-11-21T13:56:47.975Z,95.63
2018-11-21T13:58:40.610Z,106.88
2018-11-21T13:59:40.542Z,101.25
2018-11-21T14:01:33.211Z,101.25
2018-11-21T14:02:33.064Z,95.63
2018-11-21T14:04:25.768Z,90.00
2018-11-21T14:05:25.621Z,90.00
2018-11-21T14:07:18.297Z,90.00
2018-11-21T14:08:18.181Z,95.63
2018-11-21T14:10:11.484Z,112.50
2018-11-21T14:11:11.361Z,112.50
2018-11-21T14:13:04.180Z,112.50
2018-11-21T14:14:03.914Z,112.50
2018-11-21T14:15:56.589Z,112.50
2018-11-21T14:16:56.454Z,123.75
2018-11-21T14:18:49.273Z,123.75
2018-11-21T14:19:49.014Z,118.13
2018-11-21T14:21:41.687Z,112.50
2018-11-21T14:22:41.589Z,112.50
2018-11-21T14:24:34.248Z,106.88
2018-11-21T14:25:34.106Z,95.63
2018-11-21T14:27:26.821Z,84.38
2018-11-21T14:28:26.663Z,78.75
2018-11-21T14:30:19.373Z,67.50
2018-11-21T14:31:19.251Z,56.25
2018-11-21T14:33:11.914Z,50.63
2018-11-21T14:34:11.837Z,45.00
2018-11-21T14:36:04.480Z,39.38
2018-11-21T14:37:04.345Z,33.75
2018-11-21T14:38:57.014Z,39.38
2018-11-21T14:39:56.893Z,33.75
2018-11-21T14:41:49.568Z,33.75
2018-11-21T14:42:49.447Z,33.75
2018-11-21T14:44:42.107Z,28.13
2018-11-21T14:45:41.984Z,28.13
2018-11-21T14:47:34.663Z,28.13
2018-11-21T14:48:34.530Z,22.50
2018-11-21T14:50:27.199Z,22.50
2018-11-21T14:51:27.080Z,16.88
2018-11-21T14:53:19.756Z,16.88
2018-11-21T14:54:19.625Z,16.88
2018-11-21T14:56:12.448Z,16.88
2018-11-21T14:57:12.306Z,16.88
2018-11-21T14:59:05.074Z,11.25
2018-11-21T15:00:04.737Z,11.25
2018-11-21T15:01:57.413Z,11.25
2018-11-21T15:02:57.287Z,11.25
2018-11-21T15:04:49.942Z,11.25
2018-11-21T15:05:49.829Z,11.25
2018-11-21T15:07:42.671Z,11.25
2018-11-21T15:08:42.373Z,11.25
2018-11-21T15:10:35.037Z,11.25
2018-11-21T15:11:34.918Z,11.25
2018-11-21T15:13:27.598Z,5.63
2018-11-21T15:14:27.489Z,5.63
2018-11-21T15:16:20.184Z,11.25
2018-11-21T15:17:20.019Z,11.25
2018-11-21T15:19:12.677Z,11.25
2018-11-21T15:20:12.571Z,11.25
2018-11-21T15:22:05.236Z,11.25
2018-11-21T15:23:05.110Z,11.25
2018-11-21T15:24:57.771Z,5.63
2018-11-21T15:25:57.652Z,5.63
2018-11-21T15:27:50.331Z,5.63
2018-11-21T15:28:50.216Z,5.63
2018-11-21T15:30:42.858Z,5.63
2018-11-21T15:31:42.744Z,5.63
2018-11-21T15:33:35.427Z,0.00
2018-11-21T15:34:35.294Z,0.00
2018-11-21T15:36:27.957Z,0.00
2018-11-21T15:37:27.835Z,0.00
2018-11-21T15:39:20.516Z,0.00
2018-11-21T15:40:20.391Z,0.00
2018-11-21T15:42:13.070Z,0.00
2018-11-21T15:43:12.944Z,0.00
2018-11-21T15:45:05.602Z,0.00
2018-11-21T15:46:05.494Z,0.00
2018-11-21T15:47:58.157Z,0.00
2018-11-21T15:48:58.037Z,0.00
2018-11-21T15:50:50.692Z,0.00
2018-11-21T15:51:50.581Z,0.00
2018-11-21T15:53:43.252Z,0.00
2018-11-21T15:54:43.120Z,0.00
2018-11-21T15:56:35.787Z,0.00
2018-11-21T15:57:35.669Z,0.00
2018-11-21T15:59:28.370Z,0.00
2018-11-21T16:00:28.212Z,0.00
2018-11-21T16:02:20.871Z,0.00
2018-11-21T16:03:20.760Z,0.00
2018-11-21T16:05:13.444Z,0.00
2018-11-21T16:06:13.308Z,0.00
2018-11-21T16:08:05.975Z,0.00
2018-11-21T16:09:05.863Z,0.00
2018-11-21T16:10:58.780Z,0.00
2018-11-21T16:11:58.419Z,0.00
2018-11-21T16:13:51.078Z,0.00
2018-11-21T16:14:50.965Z,0.00
2018-11-21T16:16:43.644Z,0.00
2018-11-21T16:17:43.516Z,0.00
2018-11-21T16:19:36.173Z,0.00
2018-11-21T16:20:36.062Z,0.00
2018-11-21T16:22:28.748Z,0.00
2018-11-21T16:23:28.616Z,0.00
2018-11-21T16:25:21.276Z,0.00
2018-11-21T16:26:21.162Z,0.00
2018-11-21T16:28:13.831Z,0.00
2018-11-21T16:29:13.705Z,0.00
2018-11-21T16:31:06.366Z,0.00
2018-11-21T16:32:06.253Z,0.00
2018-11-21T16:33:58.921Z,0.00
2018-11-21T16:34:58.795Z,0.00
2018-11-21T16:36:51.456Z,0.00
2018-11-21T16:37:51.340Z,0.00
2018-11-21T16:39:44.025Z,0.00
2018-11-21T16:40:43.883Z,0.00
2018-11-21T16:42:36.551Z,0.00
2018-11-21T16:43:36.429Z,0.00
2018-11-21T16:45:29.105Z,0.00
2018-11-21T16:46:28.976Z,0.00
2018-11-21T16:48:21.638Z,0.00
2018-11-21T16:49:21.551Z,0.00
2018-11-21T16:51:14.209Z,0.00
2018-11-21T16:52:14.085Z,0.00
2018-11-21T16:54:06.747Z,0.00
2018-11-21T16:55:06.672Z,0.00
2018-11-21T16:56:59.307Z,0.00
2018-11-21T16:57:59.174Z,0.00
2018-11-21T16:59:51.839Z,0.00
2018-11-21T17:00:51.725Z,0.00
2018-11-21T17:02:44.405Z,0.00
2018-11-21T17:03:44.277Z,0.00
2018-11-21T17:05:36.937Z,0.00
2018-11-21T17:06:36.826Z,0.00
2018-11-21T17:08:29.502Z,0.00
2018-11-21T17:09:29.377Z,0.00
2018-11-21T17:11:22.037Z,0.00
2018-11-21T17:12:21.921Z,0.00
2018-11-21T17:14:14.594Z,0.00
2018-11-21T17:15:14.461Z,0.00
2018-11-21T17:17:07.126Z,0.00
2018-11-21T17:18:07.010Z,0.00
2018-11-21T17:19:59.688Z,0.00
2018-11-21T17:20:59.562Z,0.00
2018-11-21T17:22:52.228Z,0.00
2018-11-21T17:23:52.113Z,0.00
2018-11-21T17:25:44.791Z,0.00
2018-11-21T17:26:44.662Z,0.00
2018-11-21T17:28:37.329Z,0.00
2018-11-21T17:29:37.212Z,0.00
2018-11-21T17:31:29.896Z,0.00
2018-11-21T17:32:29.755Z,0.00
2018-11-21T17:34:22.430Z,0.00
2018-11-21T17:35:22.312Z,0.00
2018-11-21T17:37:15.016Z,0.00
2018-11-21T17:38:14.866Z,0.00
2018-11-21T17:40:07.526Z,0.00
2018-11-21T17:41:07.413Z,0.00
2018-11-21T17:43:00.088Z,0.00
2018-11-21T17:43:59.966Z,0.00
2018-11-21T17:45:52.631Z,0.00
2018-11-21T17:46:52.524Z,0.00
2018-11-21T17:48:45.196Z,0.00
2018-11-21T17:51:37.720Z,0.00
2018-11-21T17:52:37.612Z,0.00
2018-11-21T17:54:30.293Z,0.00
2018-11-21T17:55:30.158Z,0.00
2018-11-21T17:57:27.933Z,0.00
2018-11-21T17:58:22.706Z,0.00
2018-11-21T18:00:15.400Z,0.00
2018-11-21T18:01:15.321Z,0.00
2018-11-21T18:03:07.909Z,0.00
2018-11-21T18:04:07.803Z,0.00
2018-11-21T18:06:00.472Z,0.00
2018-11-21T18:07:00.342Z,0.00
2018-11-21T18:08:53.010Z,0.00
2018-11-21T18:09:52.898Z,0.00
2018-11-21T18:11:45.570Z,0.00
2018-11-21T18:12:45.447Z,0.00
2018-11-21T18:14:38.113Z,0.00
2018-11-21T18:15:37.993Z,0.00
2018-11-21T18:17:30.676Z,0.00
2018-11-21T18:18:30.546Z,0.00
2018-11-21T18:20:23.201Z,0.00
2018-11-21T18:21:23.089Z,0.00
2018-11-21T18:23:15.775Z,0.00
2018-11-21T18:24:15.635Z,0.00
2018-11-21T18:26:08.295Z,0.00
2018-11-21T18:27:08.179Z,0.00
2018-11-21T18:29:00.862Z,0.00
2018-11-21T18:30:00.731Z,0.00
2018-11-21T18:31:53.400Z,0.00
2018-11-21T18:32:53.275Z,0.00
2018-11-21T18:34:46.062Z,0.00
2018-11-21T18:35:45.817Z,0.00
2018-11-21T18:37:38.524Z,0.00
2018-11-21T18:38:38.365Z,0.00
2018-11-21T18:40:31.037Z,0.00
2018-11-21T18:41:30.903Z,0.00
2018-11-21T18:43:23.569Z,0.00
2018-11-21T18:44:23.470Z,0.00
2018-11-21T18:46:16.128Z,0.00
2018-11-21T18:47:16.000Z,0.00
2018-11-21T18:49:08.651Z,0.00
2018-11-21T18:50:11.195Z,0.00
2018-11-21T18:52:01.213Z,0.00
2018-11-21T18:53:01.078Z,0.00
2018-11-21T18:54:53.739Z,0.00
2018-11-21T18:55:53.620Z,0.00
2018-11-21T18:57:46.354Z,0.00
2018-11-21T18:58:46.215Z,0.00
2018-11-21T19:00:38.869Z,0.00
2018-11-21T19:01:38.754Z,0.00
2018-11-21T19:03:31.432Z,0.00
2018-11-21T19:04:31.310Z,0.00
2018-11-21T19:06:24.002Z,0.00
2018-11-21T19:07:23.855Z,0.00
2018-11-21T19:09:16.546Z,0.00
2018-11-21T19:10:16.417Z,0.00
2018-11-21T19:12:09.073Z,0.00
2018-11-21T19:13:08.960Z,0.00
2018-11-21T19:15:01.667Z,0.00
2018-11-21T19:16:01.514Z,0.00
2018-11-21T19:17:54.174Z,0.00
2018-11-21T19:18:54.062Z,0.00
2018-11-21T19:20:46.736Z,0.00
2018-11-21T19:21:46.605Z,0.00
2018-11-21T19:23:39.291Z,0.00
2018-11-21T19:24:39.171Z,0.00
2018-11-21T19:26:31.829Z,0.00
2018-11-21T19:27:31.705Z,0.00
2018-11-21T19:29:24.382Z,0.00
2018-11-21T19:30:24.299Z,0.00
2018-11-21T19:32:16.936Z,0.00
2018-11-21T19:33:16.812Z,0.00
2018-11-21T19:35:09.465Z,0.00
2018-11-21T19:36:09.352Z,0.00
2018-11-21T19:38:02.053Z,0.00
2018-11-21T19:39:01.921Z,0.00
2018-11-21T19:40:54.576Z,0.00
2018-11-21T19:41:54.487Z,0.00
2018-11-21T19:43:47.161Z,0.00
2018-11-21T19:44:47.218Z,0.00
2018-11-21T19:46:39.688Z,0.00
2018-11-21T19:47:39.556Z,0.00
2018-11-21T19:49:33.404Z,0.00
2018-11-21T19:50:32.600Z,0.00
2018-11-21T19:52:25.259Z,0.00
2018-11-21T19:53:25.497Z,0.00
2018-11-21T19:55:17.873Z,0.00
2018-11-21T19:56:17.710Z,0.00
2018-11-21T19:58:10.345Z,0.00
2018-11-21T19:59:10.232Z,0.00
2018-11-21T20:01:02.931Z,0.00
2018-11-21T20:02:02.786Z,0.00
2018-11-21T20:03:55.457Z,0.00
2018-11-21T20:04:55.336Z,0.00
2018-11-21T20:06:48.016Z,0.00
2018-11-21T20:07:47.882Z,0.00
2018-11-21T20:09:41.037Z,0.00
2018-11-21T20:10:40.926Z,0.00
2018-11-21T20:12:39.709Z,0.00
2018-11-21T20:13:33.501Z,0.00
2018-11-21T20:15:26.139Z,0.00
2018-11-21T20:16:26.025Z,0.00
2018-11-21T20:18:18.708Z,0.00
2018-11-21T20:19:18.576Z,0.00
2018-11-21T20:21:11.237Z,0.00
2018-11-21T20:22:11.122Z,0.00
2018-11-21T20:24:03.794Z,0.00
2018-11-21T20:25:03.667Z,0.00
2018-11-21T20:26:56.327Z,0.00
2018-11-21T20:27:56.210Z,0.00
2018-11-21T20:29:54.554Z,0.00
2018-11-21T20:30:48.764Z,0.00
2018-11-21T20:32:41.433Z,0.00
2018-11-21T20:33:41.317Z,0.00
2018-11-21T20:35:34.038Z,0.00
2018-11-21T20:36:33.884Z,0.00
2018-11-21T20:38:26.566Z,0.00
2018-11-21T20:39:26.441Z,0.00
2018-11-21T20:41:19.128Z,0.00
2018-11-21T20:42:18.990Z,0.00
2018-11-21T20:44:11.663Z,0.00
2018-11-21T20:45:11.530Z,0.00
2018-11-21T20:47:05.229Z,0.00
2018-11-21T20:48:05.094Z,0.00
2018-11-21T20:49:57.758Z,0.00
2018-11-21T20:50:57.643Z,0.00
2018-11-21T20:52:50.333Z,0.00
2018-11-21T20:53:50.194Z,0.00
2018-11-21T20:55:42.859Z,0.00
2018-11-21T20:56:42.739Z,0.00
2018-11-21T20:58:35.408Z,0.00
2018-11-21T20:59:35.281Z,0.00
2018-11-21T21:01:27.946Z,0.00
2018-11-21T21:02:27.838Z,0.00
2018-11-21T21:04:20.518Z,0.00
2018-11-21T21:05:20.380Z,0.00
2018-11-21T21:07:13.046Z,0.00
2018-11-21T21:08:12.954Z,0.00
2018-11-21T21:10:05.617Z,0.00
2018-11-21T21:11:05.477Z,0.00
2018-11-21T21:12:58.144Z,0.00
2018-11-21T21:13:58.023Z,0.00
2018-11-21T21:15:50.720Z,0.00
2018-11-21T21:16:50.623Z,0.00
2018-11-21T21:18:43.241Z,0.00
2018-11-21T21:19:43.125Z,0.00
2018-11-21T21:21:36.310Z,0.00
2018-11-21T21:22:36.170Z,0.00
2018-11-21T21:24:28.831Z,0.00
2018-11-21T21:25:28.723Z,0.00
2018-11-21T21:27:21.400Z,0.00
2018-11-21T21:28:21.261Z,0.00
2018-11-21T21:30:13.935Z,0.00
2018-11-21T21:31:13.811Z,0.00
2018-11-21T21:33:06.483Z,0.00
2018-11-21T21:34:06.359Z,0.00
2018-11-21T21:35:59.016Z,0.00
2018-11-21T21:36:58.899Z,0.00
2018-11-21T21:38:51.590Z,0.00
2018-11-21T21:39:51.456Z,0.00
2018-11-21T21:41:44.267Z,0.00
2018-11-21T21:42:44.244Z,0.00
2018-11-21T21:44:36.836Z,0.00
2018-11-21T21:45:36.693Z,0.00
2018-11-21T21:47:29.350Z,0.00
2018-11-21T21:48:29.243Z,0.00
2018-11-21T21:50:21.917Z,0.00
2018-11-21T21:51:21.789Z,0.00
2018-11-21T21:53:14.518Z,0.00
2018-11-21T21:54:14.374Z,0.00
2018-11-21T21:56:07.057Z,0.00
2018-11-21T21:57:06.941Z,0.00
2018-11-21T21:59:00.082Z,0.00
2018-11-21T22:00:00.387Z,0.00
2018-11-21T22:01:53.137Z,0.00
2018-11-21T22:02:53.110Z,0.00
2018-11-21T22:04:46.241Z,0.00
2018-11-21T22:05:46.331Z,0.00
2018-11-21T22:07:38.806Z,0.00
2018-11-21T22:08:38.860Z,0.00
2018-11-21T22:10:31.341Z,0.00
2018-11-21T22:11:31.223Z,0.00
2018-11-21T22:13:24.589Z,0.00
2018-11-21T22:14:24.303Z,0.00
2018-11-21T22:16:17.116Z,0.00
2018-11-21T22:17:16.854Z,0.00
2018-11-21T22:19:09.553Z,0.00
2018-11-21T22:20:09.389Z,0.00
2018-11-21T22:22:02.108Z,0.00
2018-11-21T22:23:02.019Z,0.00
2018-11-21T22:24:54.670Z,0.00
2018-11-21T22:25:54.546Z,0.00
2018-11-21T22:27:47.202Z,0.00
2018-11-21T22:28:47.090Z,0.00
2018-11-21T22:30:39.772Z,0.00
2018-11-21T22:31:39.638Z,0.00
2018-11-21T22:33:32.295Z,0.00
2018-11-21T22:34:32.188Z,0.00
2018-11-21T22:36:24.861Z,0.00
2018-11-21T22:37:24.754Z,0.00
2018-11-21T22:39:17.390Z,0.00
2018-11-21T22:40:17.352Z,0.00
2018-11-21T22:42:09.958Z,0.00
2018-11-21T22:43:09.830Z,0.00
2018-11-21T22:45:02.492Z,0.00
2018-11-21T22:46:02.383Z,0.00
2018-11-21T22:47:55.164Z,0.00
2018-11-21T22:48:55.048Z,0.00
2018-11-21T22:50:47.761Z,0.00
2018-11-21T22:51:47.677Z,0.00
2018-11-21T22:53:40.265Z,0.00
2018-11-21T22:54:40.131Z,0.00
2018-11-21T22:56:33.132Z,0.00
2018-11-21T22:57:32.758Z,0.00
2018-11-21T22:59:25.382Z,0.00
